createdAt,value
2019-03-08T00:00:49.198Z,90.41
2019-03-08T00:01:49.212Z,90.47
2019-03-08T00:02:49.190Z,90.10
2019-03-08T00:03:49.162Z,90.51
2019-03-08T00:04:49.154Z,90.41
2019-03-08T00:05:49.141Z,90.61
2019-03-08T00:06:49.129Z,90.61
2019-03-08T00:07:49.170Z,89.79
2019-03-08T00:08:49.121Z,90.10
2019-03-08T00:09:49.098Z,90.16
2019-03-08T00:10:49.086Z,90.10
2019-03-08T00:11:49.076Z,90.00
2019-03-08T00:12:49.064Z,90.26
2019-03-08T00:13:49.084Z,91.30
2019-03-08T00:14:49.046Z,90.37
2019-03-08T00:15:49.052Z,90.41
2019-03-08T00:16:49.022Z,89.89
2019-03-08T00:17:49.008Z,90.10
2019-03-08T00:18:49.002Z,90.10
2019-03-08T00:19:49.026Z,90.00
2019-03-08T00:20:48.976Z,89.75
2019-03-08T00:21:48.983Z,90.10
2019-03-08T00:22:48.968Z,90.20
2019-03-08T00:23:48.947Z,90.31
2019-03-08T00:24:48.933Z,89.48
2019-03-08T00:25:48.956Z,90.10
2019-03-08T00:26:48.909Z,90.51
2019-03-08T00:27:48.915Z,90.31
2019-03-08T00:28:48.886Z,90.00
2019-03-08T00:29:48.876Z,90.10
2019-03-08T00:30:48.876Z,89.58
2019-03-08T00:31:48.895Z,90.10
2019-03-08T00:32:48.842Z,89.79
2019-03-08T00:33:48.837Z,90.41
2019-03-08T00:34:48.823Z,89.79
2019-03-08T00:35:48.828Z,90.37
2019-03-08T00:36:48.802Z,90.72
2019-03-08T00:37:48.819Z,91.03
2019-03-08T00:38:48.781Z,90.61
2019-03-08T00:39:48.768Z,90.41
2019-03-08T00:40:48.756Z,90.20
2019-03-08T00:41:48.763Z,90.00
2019-03-08T00:42:48.733Z,90.41
2019-03-08T00:43:48.763Z,90.51
2019-03-08T00:44:48.747Z,90.26
2019-03-08T00:45:48.702Z,91.03
2019-03-08T00:46:48.685Z,90.51
2019-03-08T00:47:48.693Z,90.82
2019-03-08T00:48:48.669Z,90.92
2019-03-08T00:49:48.685Z,91.13
2019-03-08T00:50:48.645Z,91.34
2019-03-08T00:51:48.634Z,90.92
2019-03-08T00:52:48.659Z,91.64
2019-03-08T00:53:48.636Z,92.16
2019-03-08T00:54:48.600Z,92.06
2019-03-08T00:55:48.639Z,92.57
2019-03-08T00:56:48.581Z,92.57
2019-03-08T00:57:48.569Z,92.47
2019-03-08T00:58:48.558Z,92.31
2019-03-08T00:59:48.562Z,93.19
2019-03-08T01:00:48.534Z,93.40
2019-03-08T01:01:48.555Z,93.03
2019-03-08T01:02:48.514Z,93.85
2019-03-08T01:03:48.502Z,93.96
2019-03-08T01:04:48.514Z,94.57
2019-03-08T01:05:48.479Z,94.43
2019-03-08T01:06:48.469Z,94.12
2019-03-08T01:07:48.508Z,93.60
2019-03-08T01:08:48.460Z,94.06
2019-03-08T01:09:48.437Z,93.40
2019-03-08T01:10:48.425Z,93.50
2019-03-08T01:11:48.413Z,93.85
2019-03-08T01:12:48.418Z,94.23
2019-03-08T01:13:48.417Z,94.68
2019-03-08T01:14:48.382Z,94.23
2019-03-08T01:15:48.382Z,94.84
2019-03-08T01:16:48.358Z,94.43
2019-03-08T01:17:48.351Z,93.40
2019-03-08T01:18:48.335Z,93.30
2019-03-08T01:19:48.369Z,92.37
2019-03-08T01:20:48.314Z,93.60
2019-03-08T01:21:48.309Z,92.61
2019-03-08T01:22:48.311Z,92.31
2019-03-08T01:23:48.295Z,92.37
2019-03-08T01:24:48.271Z,92.57
2019-03-08T01:25:48.301Z,92.27
2019-03-08T01:26:48.249Z,91.69
2019-03-08T01:27:48.238Z,92.31
2019-03-08T01:28:48.243Z,91.17
2019-03-08T01:29:48.214Z,91.58
2019-03-08T01:30:48.220Z,91.79
2019-03-08T01:31:48.219Z,91.48
2019-03-08T01:32:48.183Z,91.28
2019-03-08T01:33:48.180Z,92.41
2019-03-08T01:34:48.158Z,90.97
2019-03-08T01:35:48.160Z,91.48
2019-03-08T01:36:48.156Z,90.55
2019-03-08T01:37:48.175Z,90.25
2019-03-08T01:38:48.114Z,90.97
2019-03-08T01:39:48.105Z,90.97
2019-03-08T01:40:48.094Z,91.07
2019-03-08T01:41:48.107Z,90.76
2019-03-08T01:42:48.074Z,90.66
2019-03-08T01:43:48.106Z,90.04
2019-03-08T01:44:48.050Z,89.83
2019-03-08T01:45:48.039Z,89.77
2019-03-08T01:46:48.030Z,89.22
2019-03-08T01:47:48.031Z,89.11
2019-03-08T01:48:48.027Z,89.42
2019-03-08T01:49:48.018Z,89.11
2019-03-08T01:50:47.986Z,89.73
2019-03-08T01:51:47.974Z,88.59
2019-03-08T01:52:47.962Z,88.39
2019-03-08T01:53:47.952Z,88.08
2019-03-08T01:54:47.954Z,89.11
2019-03-08T01:55:47.967Z,89.11
2019-03-08T01:56:47.919Z,89.62
2019-03-08T01:57:47.910Z,89.32
2019-03-08T01:58:47.898Z,89.42
2019-03-08T01:59:47.885Z,89.32
2019-03-08T02:00:47.890Z,88.49
2019-03-08T02:01:47.891Z,88.90
2019-03-08T02:02:47.855Z,89.73
2019-03-08T02:03:47.839Z,89.22
2019-03-08T02:04:47.831Z,89.62
2019-03-08T02:05:47.838Z,88.39
2019-03-08T02:06:47.811Z,88.70
2019-03-08T02:07:47.841Z,88.39
2019-03-08T02:08:47.791Z,88.80
2019-03-08T02:09:47.778Z,88.80
2019-03-08T02:10:47.767Z,88.39
2019-03-08T02:11:47.773Z,88.80
2019-03-08T02:12:47.743Z,88.18
2019-03-08T02:13:47.774Z,88.18
2019-03-08T02:14:47.722Z,87.66
2019-03-08T02:15:47.707Z,87.77
2019-03-08T02:16:47.700Z,87.66
2019-03-08T02:17:47.704Z,87.98
2019-03-08T02:18:47.680Z,87.98
2019-03-08T02:19:47.712Z,88.18
2019-03-08T02:20:47.654Z,87.46
2019-03-08T02:21:47.647Z,88.49
2019-03-08T02:22:47.656Z,88.18
2019-03-08T02:23:47.628Z,88.18
2019-03-08T02:24:47.612Z,87.66
2019-03-08T02:25:47.629Z,88.29
2019-03-08T02:26:47.588Z,88.39
2019-03-08T02:27:47.580Z,88.70
2019-03-08T02:28:47.606Z,88.59
2019-03-08T02:29:47.559Z,88.49
2019-03-08T02:30:47.544Z,88.08
2019-03-08T02:31:47.576Z,88.18
2019-03-08T02:32:47.523Z,87.66
2019-03-08T02:33:47.513Z,87.46
2019-03-08T02:34:47.521Z,87.63
2019-03-08T02:35:47.493Z,87.56
2019-03-08T02:36:47.523Z,87.63
2019-03-08T02:37:47.470Z,87.01
2019-03-08T02:38:47.462Z,87.21
2019-03-08T02:39:47.446Z,86.08
2019-03-08T02:40:47.450Z,87.42
2019-03-08T02:41:47.443Z,86.90
2019-03-08T02:42:47.436Z,86.80
2019-03-08T02:43:47.402Z,86.90
2019-03-08T02:44:47.391Z,87.32
2019-03-08T02:45:47.383Z,86.80
2019-03-08T02:46:47.370Z,87.26
2019-03-08T02:47:47.376Z,87.42
2019-03-08T02:48:47.368Z,87.66
2019-03-08T02:49:47.342Z,87.73
2019-03-08T02:50:47.326Z,87.56
2019-03-08T02:51:47.319Z,87.87
2019-03-08T02:52:47.304Z,87.66
2019-03-08T02:53:47.309Z,87.11
2019-03-08T02:54:47.303Z,87.46
2019-03-08T02:55:47.271Z,86.74
2019-03-08T02:56:47.261Z,86.39
2019-03-08T02:57:47.249Z,85.87
2019-03-08T02:58:47.239Z,86.29
2019-03-08T02:59:47.241Z,85.57
2019-03-08T03:00:47.259Z,85.67
2019-03-08T03:01:47.205Z,85.05
2019-03-08T03:02:47.196Z,85.67
2019-03-08T03:03:47.182Z,85.97
2019-03-08T03:04:47.188Z,86.08
2019-03-08T03:05:47.163Z,85.46
2019-03-08T03:06:47.177Z,85.97
2019-03-08T03:07:47.142Z,86.60
2019-03-08T03:08:47.135Z,85.67
2019-03-08T03:09:47.117Z,86.60
2019-03-08T03:10:47.121Z,86.32
2019-03-08T03:11:47.099Z,86.22
2019-03-08T03:12:47.114Z,87.01
2019-03-08T03:13:47.072Z,87.35
2019-03-08T03:14:47.062Z,87.32
2019-03-08T03:15:47.064Z,87.46
2019-03-08T03:16:47.043Z,87.21
2019-03-08T03:17:47.062Z,87.35
2019-03-08T03:18:47.019Z,87.63
2019-03-08T03:19:47.030Z,87.56
2019-03-08T03:20:46.999Z,88.08
2019-03-08T03:21:46.985Z,88.80
2019-03-08T03:22:46.974Z,88.70
2019-03-08T03:23:46.976Z,87.66
2019-03-08T03:24:46.956Z,88.70
2019-03-08T03:25:46.988Z,88.80
2019-03-08T03:26:46.945Z,88.59
2019-03-08T03:27:46.922Z,89.22
2019-03-08T03:28:46.908Z,89.22
2019-03-08T03:29:46.897Z,89.22
2019-03-08T03:30:46.924Z,89.22
2019-03-08T03:31:46.924Z,89.22
2019-03-08T03:32:46.880Z,88.18
2019-03-08T03:33:46.853Z,89.01
2019-03-08T03:34:46.843Z,89.22
2019-03-08T03:35:46.831Z,88.08
2019-03-08T03:36:46.835Z,87.98
2019-03-08T03:37:46.842Z,87.66
2019-03-08T03:38:46.818Z,87.56
2019-03-08T03:39:46.793Z,87.46
2019-03-08T03:40:46.777Z,87.77
2019-03-08T03:41:46.767Z,87.98
2019-03-08T03:42:46.771Z,88.08
2019-03-08T03:43:46.772Z,87.52
2019-03-08T03:44:46.734Z,87.63
2019-03-08T03:45:46.722Z,87.56
2019-03-08T03:46:46.713Z,87.77
2019-03-08T03:47:46.704Z,88.18
2019-03-08T03:48:46.703Z,88.18
2019-03-08T03:49:46.696Z,89.22
2019-03-08T03:50:46.682Z,89.32
2019-03-08T03:51:46.681Z,88.90
2019-03-08T03:52:46.692Z,89.62
2019-03-08T03:53:46.650Z,88.59
2019-03-08T03:54:46.624Z,89.01
2019-03-08T03:55:46.654Z,89.22
2019-03-08T03:56:46.602Z,88.70
2019-03-08T03:57:46.589Z,89.62
2019-03-08T03:58:46.581Z,89.22
2019-03-08T03:59:46.585Z,89.22
2019-03-08T04:00:46.559Z,89.32
2019-03-08T04:01:46.546Z,89.94
2019-03-08T04:02:46.580Z,90.14
2019-03-08T04:03:46.523Z,90.25
2019-03-08T04:04:46.514Z,90.04
2019-03-08T04:05:46.524Z,89.73
2019-03-08T04:06:46.493Z,90.35
2019-03-08T04:07:46.478Z,90.55
2019-03-08T04:08:46.499Z,90.45
2019-03-08T04:09:46.458Z,90.35
2019-03-08T04:10:46.464Z,89.83
2019-03-08T04:11:46.449Z,90.19
2019-03-08T04:12:46.424Z,90.35
2019-03-08T04:13:46.413Z,90.04
2019-03-08T04:14:46.430Z,89.73
2019-03-08T04:15:46.393Z,89.94
2019-03-08T04:16:46.393Z,89.62
2019-03-08T04:17:46.368Z,89.52
2019-03-08T04:18:46.375Z,89.73
2019-03-08T04:19:46.349Z,89.73
2019-03-08T04:20:46.375Z,89.62
2019-03-08T04:21:46.330Z,89.42
2019-03-08T04:22:46.335Z,89.62
2019-03-08T04:23:46.305Z,89.32
2019-03-08T04:24:46.291Z,89.62
2019-03-08T04:25:46.284Z,89.62
2019-03-08T04:26:46.298Z,89.62
2019-03-08T04:27:46.256Z,89.62
2019-03-08T04:28:46.298Z,90.04
2019-03-08T04:29:46.237Z,90.14
2019-03-08T04:30:46.228Z,89.83
2019-03-08T04:31:46.214Z,89.73
2019-03-08T04:32:46.239Z,90.10
2019-03-08T04:33:46.216Z,90.35
2019-03-08T04:34:46.181Z,90.86
2019-03-08T04:35:46.171Z,90.86
2019-03-08T04:36:46.161Z,91.58
2019-03-08T04:37:46.147Z,91.38
2019-03-08T04:38:46.154Z,91.28
2019-03-08T04:39:46.170Z,91.48
2019-03-08T04:40:46.127Z,91.52
2019-03-08T04:41:46.103Z,91.63
2019-03-08T04:42:46.092Z,92.66
2019-03-08T04:43:46.083Z,92.25
2019-03-08T04:44:46.089Z,92.35
2019-03-08T04:45:46.087Z,92.55
2019-03-08T04:46:46.052Z,92.35
2019-03-08T04:47:46.039Z,92.25
2019-03-08T04:48:46.027Z,92.55
2019-03-08T04:49:46.015Z,92.14
2019-03-08T04:50:46.047Z,92.55
2019-03-08T04:51:46.006Z,92.25
2019-03-08T04:52:45.995Z,92.55
2019-03-08T04:53:45.983Z,92.46
2019-03-08T04:54:45.961Z,92.25
2019-03-08T04:55:45.957Z,92.86
2019-03-08T04:56:45.980Z,92.46
2019-03-08T04:57:45.945Z,92.97
2019-03-08T04:58:45.915Z,92.86
2019-03-08T04:59:45.905Z,92.66
2019-03-08T05:00:45.892Z,92.86
2019-03-08T05:01:45.885Z,92.29
2019-03-08T05:02:45.908Z,92.25
2019-03-08T05:03:45.876Z,91.88
2019-03-08T05:04:45.850Z,91.42
2019-03-08T05:05:45.839Z,91.94
2019-03-08T05:06:45.832Z,92.25
2019-03-08T05:07:45.817Z,92.46
2019-03-08T05:08:45.918Z,92.29
2019-03-08T05:09:45.801Z,92.70
2019-03-08T05:10:45.796Z,92.14
2019-03-08T05:11:45.773Z,91.36
2019-03-08T05:12:45.761Z,91.52
2019-03-08T05:13:45.752Z,91.67
2019-03-08T05:14:45.784Z,91.22
2019-03-08T05:15:45.731Z,91.22
2019-03-08T05:16:45.727Z,91.11
2019-03-08T05:17:45.706Z,90.28
2019-03-08T05:18:45.694Z,90.28
2019-03-08T05:19:45.700Z,90.49
2019-03-08T05:20:45.716Z,89.67
2019-03-08T05:21:45.664Z,90.43
2019-03-08T05:22:45.654Z,90.49
2019-03-08T05:23:45.648Z,91.11
2019-03-08T05:24:45.630Z,90.80
2019-03-08T05:25:45.631Z,90.39
2019-03-08T05:26:45.633Z,91.42
2019-03-08T05:27:45.593Z,90.64
2019-03-08T05:28:45.585Z,90.22
2019-03-08T05:29:45.596Z,90.28
2019-03-08T05:30:45.577Z,90.12
2019-03-08T05:31:45.554Z,89.87
2019-03-08T05:32:45.569Z,90.33
2019-03-08T05:33:45.532Z,90.19
2019-03-08T05:34:45.520Z,90.49
2019-03-08T05:35:45.534Z,90.19
2019-03-08T05:36:45.497Z,90.39
2019-03-08T05:37:46.716Z,90.28
2019-03-08T05:38:45.476Z,90.28
2019-03-08T05:39:45.466Z,89.56
2019-03-08T05:40:45.457Z,89.56
2019-03-08T05:41:45.458Z,89.67
2019-03-08T05:42:45.431Z,89.56
2019-03-08T05:43:45.421Z,89.25
2019-03-08T05:44:45.434Z,89.25
2019-03-08T05:45:45.398Z,89.25
2019-03-08T05:46:45.389Z,89.15
2019-03-08T05:47:45.391Z,89.56
2019-03-08T05:48:45.381Z,90.08
2019-03-08T05:49:45.355Z,89.15
2019-03-08T05:50:45.393Z,89.56
2019-03-08T05:51:45.335Z,89.46
2019-03-08T05:52:45.323Z,89.87
2019-03-08T05:53:45.328Z,90.28
2019-03-08T05:54:45.298Z,90.39
2019-03-08T05:55:45.289Z,89.46
2019-03-08T05:56:45.320Z,89.77
2019-03-08T05:57:45.268Z,89.98
2019-03-08T05:58:45.253Z,89.98
2019-03-08T05:59:45.553Z,89.36
2019-03-08T06:00:45.247Z,89.77
2019-03-08T06:01:45.222Z,89.56
2019-03-08T06:02:45.239Z,89.15
2019-03-08T06:03:45.200Z,89.36
2019-03-08T06:04:45.215Z,89.25
2019-03-08T06:05:45.178Z,89.67
2019-03-08T06:06:45.167Z,89.67
2019-03-08T06:07:45.180Z,89.15
2019-03-08T06:08:45.172Z,89.67
2019-03-08T06:09:45.135Z,88.95
2019-03-08T06:10:45.124Z,89.25
2019-03-08T06:11:45.113Z,89.77
2019-03-08T06:12:45.099Z,88.64
2019-03-08T06:13:45.122Z,89.67
2019-03-08T06:14:45.132Z,89.67
2019-03-08T06:15:45.071Z,89.67
2019-03-08T06:16:45.057Z,89.46
2019-03-08T06:17:45.050Z,89.15
2019-03-08T06:18:45.051Z,89.05
2019-03-08T06:19:45.026Z,88.43
2019-03-08T06:20:45.056Z,88.70
2019-03-08T06:21:44.999Z,88.80
2019-03-08T06:22:44.991Z,88.80
2019-03-08T06:23:45.030Z,88.43
2019-03-08T06:24:44.985Z,88.84
2019-03-08T06:25:44.962Z,88.22
2019-03-08T06:26:44.947Z,89.15
2019-03-08T06:27:44.936Z,89.67
2019-03-08T06:28:44.950Z,89.25
2019-03-08T06:29:44.916Z,89.67
2019-03-08T06:30:44.917Z,89.19
2019-03-08T06:31:44.891Z,89.67
2019-03-08T06:32:44.880Z,88.12
2019-03-08T06:33:44.872Z,88.43
2019-03-08T06:34:44.889Z,89.05
2019-03-08T06:35:44.863Z,88.64
2019-03-08T06:36:44.838Z,88.22
2019-03-08T06:37:44.824Z,89.05
2019-03-08T06:38:44.810Z,88.74
2019-03-08T06:39:44.804Z,88.22
2019-03-08T06:40:44.829Z,88.74
2019-03-08T06:41:44.804Z,88.74
2019-03-08T06:42:44.780Z,89.05
2019-03-08T06:43:44.762Z,88.74
2019-03-08T06:44:44.749Z,88.22
2019-03-08T06:45:44.738Z,87.92
2019-03-08T06:46:44.737Z,87.50
2019-03-08T06:47:44.740Z,87.40
2019-03-08T06:48:44.736Z,87.56
2019-03-08T06:49:44.696Z,87.56
2019-03-08T06:50:44.708Z,87.46
2019-03-08T06:51:44.675Z,86.88
2019-03-08T06:52:44.663Z,87.46
2019-03-08T06:53:44.663Z,87.56
2019-03-08T06:54:44.671Z,86.63
2019-03-08T06:55:44.629Z,86.84
2019-03-08T06:56:44.614Z,86.84
2019-03-08T06:57:44.607Z,87.05
2019-03-08T06:58:44.620Z,86.84
2019-03-08T06:59:44.605Z,86.98
2019-03-08T07:00:44.577Z,86.88
2019-03-08T07:01:44.581Z,87.08
2019-03-08T07:02:44.561Z,86.98
2019-03-08T07:03:44.539Z,87.08
2019-03-08T07:04:44.564Z,87.08
2019-03-08T07:05:44.555Z,87.29
2019-03-08T07:06:44.507Z,87.26
2019-03-08T07:07:44.496Z,86.32
2019-03-08T07:08:44.489Z,86.32
2019-03-08T07:09:44.472Z,86.12
2019-03-08T07:10:44.496Z,87.26
2019-03-08T07:11:44.488Z,86.74
2019-03-08T07:12:44.439Z,87.66
2019-03-08T07:13:44.429Z,88.39
2019-03-08T07:14:44.418Z,89.11
2019-03-08T07:15:44.418Z,89.73
2019-03-08T07:16:44.392Z,90.04
2019-03-08T07:17:44.407Z,89.56
2019-03-08T07:18:44.391Z,89.40
2019-03-08T07:19:44.363Z,87.68
2019-03-08T07:20:44.357Z,87.58
2019-03-08T07:21:44.351Z,87.89
2019-03-08T07:22:44.332Z,87.48
2019-03-08T07:23:44.360Z,87.62
2019-03-08T07:24:44.310Z,87.10
2019-03-08T07:25:51.137Z,87.52
2019-03-08T07:26:45.283Z,87.66
2019-03-08T07:27:44.276Z,87.56
2019-03-08T07:28:44.270Z,87.87
2019-03-08T07:29:44.279Z,88.59
2019-03-08T07:30:44.244Z,88.28
2019-03-08T07:31:44.247Z,88.18
2019-03-08T07:32:44.220Z,88.39
2019-03-08T07:33:52.863Z,89.83
2019-03-08T07:34:45.192Z,88.55
2019-03-08T07:35:44.828Z,89.07
2019-03-08T07:36:44.176Z,88.65
2019-03-08T07:37:44.176Z,88.86
2019-03-08T07:38:44.159Z,88.76
2019-03-08T07:39:44.143Z,89.38
2019-03-08T07:40:44.133Z,89.38
2019-03-08T07:41:44.120Z,89.28
2019-03-08T07:42:45.108Z,89.38
2019-03-08T07:43:44.101Z,89.38
2019-03-08T07:44:44.086Z,89.89
2019-03-08T07:45:44.362Z,89.69
2019-03-08T07:46:44.063Z,89.28
2019-03-08T07:47:44.054Z,89.69
2019-03-08T07:48:44.088Z,90.20
2019-03-08T07:49:44.033Z,90.04
2019-03-08T07:50:44.022Z,90.25
2019-03-08T07:51:44.010Z,89.73
2019-03-08T07:52:44.004Z,90.04
2019-03-08T07:53:43.991Z,90.35
2019-03-08T07:54:52.468Z,90.45
2019-03-08T07:55:46.427Z,90.00
2019-03-08T07:56:43.956Z,89.69
2019-03-08T07:57:43.944Z,90.20
2019-03-08T07:58:43.932Z,89.48
2019-03-08T07:59:53.141Z,89.48
2019-03-08T08:00:44.969Z,90.20
2019-03-08T08:01:43.902Z,89.69
2019-03-08T08:02:43.891Z,89.38
2019-03-08T08:03:43.880Z,88.24
2019-03-08T08:04:43.865Z,89.28
2019-03-08T08:05:43.870Z,89.17
2019-03-08T08:06:43.879Z,89.17
2019-03-08T08:07:43.836Z,88.71
2019-03-08T08:08:51.337Z,89.17
2019-03-08T08:09:44.812Z,87.83
2019-03-08T08:10:43.815Z,87.79
2019-03-08T08:11:43.805Z,87.48
2019-03-08T08:12:43.819Z,87.65
2019-03-08T08:13:43.769Z,87.54
2019-03-08T08:14:43.756Z,86.63
2019-03-08T08:15:45.458Z,85.46
2019-03-08T08:16:43.763Z,83.56
2019-03-08T08:17:43.742Z,83.56
2019-03-08T08:18:43.761Z,84.12
2019-03-08T08:19:43.703Z,84.19
2019-03-08T08:20:43.688Z,83.05
2019-03-08T08:21:43.683Z,83.47
2019-03-08T08:22:43.670Z,82.81
2019-03-08T08:23:43.667Z,81.74
2019-03-08T08:24:43.670Z,81.70
2019-03-08T08:25:43.635Z,81.19
2019-03-08T08:26:43.628Z,81.63
2019-03-08T08:27:43.637Z,81.63
2019-03-08T08:28:49.970Z,82.19
2019-03-08T08:29:44.605Z,82.15
2019-03-08T08:30:43.609Z,81.46
2019-03-08T08:31:43.574Z,81.35
2019-03-08T08:32:43.564Z,81.25
2019-03-08T08:33:43.565Z,81.21
2019-03-08T08:34:43.539Z,80.43
2019-03-08T08:35:43.527Z,79.81
2019-03-08T08:36:43.535Z,80.63
2019-03-08T08:37:43.517Z,80.43
2019-03-08T08:38:43.497Z,80.22
2019-03-08T08:39:43.499Z,80.12
2019-03-08T08:40:43.478Z,80.88
2019-03-08T08:41:43.462Z,81.49
2019-03-08T08:42:43.449Z,81.70
2019-03-08T08:43:43.472Z,81.81
2019-03-08T08:44:43.439Z,82.11
2019-03-08T08:45:43.418Z,81.87
2019-03-08T08:46:43.407Z,81.67
2019-03-08T08:47:43.395Z,81.25
2019-03-08T08:48:43.383Z,81.76
2019-03-08T08:49:43.444Z,83.14
2019-03-08T08:50:43.374Z,83.11
2019-03-08T08:51:43.351Z,82.53
2019-03-08T08:52:43.344Z,81.23
2019-03-08T08:53:43.357Z,80.51
2019-03-08T08:54:43.319Z,80.33
2019-03-08T08:55:43.771Z,81.37
2019-03-08T08:56:43.296Z,80.05
2019-03-08T08:57:43.283Z,79.81
2019-03-08T08:58:43.275Z,78.75
2019-03-08T08:59:43.268Z,78.54
2019-03-08T09:00:43.250Z,78.06
2019-03-08T09:01:43.269Z,78.17
2019-03-08T09:02:43.229Z,78.27
2019-03-08T09:03:43.267Z,78.85
2019-03-08T09:04:43.205Z,78.85
2019-03-08T09:05:43.197Z,77.99
2019-03-08T09:06:43.202Z,77.58
2019-03-08T09:07:43.207Z,78.30
2019-03-08T09:08:43.182Z,78.06
2019-03-08T09:09:43.150Z,76.76
2019-03-08T09:10:43.138Z,76.79
2019-03-08T09:11:47.184Z,78.37
2019-03-08T09:12:44.132Z,79.09
2019-03-08T09:13:43.147Z,78.78
2019-03-08T09:14:43.097Z,79.09
2019-03-08T09:15:43.087Z,79.50
2019-03-08T09:16:43.075Z,78.03
2019-03-08T09:17:43.075Z,78.03
2019-03-08T09:18:43.085Z,78.23
2019-03-08T09:19:43.082Z,77.62
2019-03-08T09:20:43.031Z,76.79
2019-03-08T09:21:43.023Z,77.58
2019-03-08T09:22:43.009Z,77.78
2019-03-08T09:23:43.012Z,76.86
2019-03-08T09:24:42.988Z,77.99
2019-03-08T09:25:43.003Z,78.20
2019-03-08T09:26:42.966Z,77.82
2019-03-08T09:27:42.982Z,76.55
2019-03-08T09:28:42.955Z,76.76
2019-03-08T09:29:42.946Z,77.48
2019-03-08T09:30:42.922Z,76.62
2019-03-08T09:31:42.911Z,76.10
2019-03-08T09:32:42.900Z,75.08
2019-03-08T09:33:42.911Z,74.67
2019-03-08T09:34:42.897Z,75.59
2019-03-08T09:35:42.884Z,74.67
2019-03-08T09:36:42.856Z,75.80
2019-03-08T09:37:42.843Z,75.29
2019-03-08T09:38:42.839Z,74.67
2019-03-08T09:39:42.856Z,74.60
2019-03-08T09:40:42.813Z,74.46
2019-03-08T09:41:42.811Z,73.23
2019-03-08T09:42:42.797Z,73.54
2019-03-08T09:43:42.778Z,73.44
2019-03-08T09:44:42.767Z,74.36
2019-03-08T09:45:42.786Z,74.74
2019-03-08T09:46:42.748Z,74.63
2019-03-08T09:47:42.749Z,72.00
2019-03-08T09:48:48.588Z,73.27
2019-03-08T09:49:43.713Z,71.72
2019-03-08T09:50:42.703Z,73.47
2019-03-08T09:51:42.715Z,73.44
2019-03-08T09:52:42.679Z,73.23
2019-03-08T09:53:42.686Z,72.31
2019-03-08T09:54:42.661Z,71.79
2019-03-08T09:55:42.650Z,72.82
2019-03-08T09:56:42.639Z,72.92
2019-03-08T09:57:42.645Z,73.23
2019-03-08T09:58:42.616Z,72.55
2019-03-08T09:59:42.614Z,73.23
2019-03-08T10:00:42.593Z,72.96
2019-03-08T10:01:42.582Z,73.57
2019-03-08T10:02:42.572Z,72.65
2019-03-08T10:03:46.264Z,72.27
2019-03-08T10:04:42.560Z,72.75
2019-03-08T10:05:42.537Z,74.02
2019-03-08T10:06:42.539Z,75.25
2019-03-08T10:07:42.515Z,74.77
2019-03-08T10:08:42.504Z,75.67
2019-03-08T10:09:42.532Z,77.86
2019-03-08T10:10:42.497Z,79.65
2019-03-08T10:11:42.471Z,80.30
2019-03-08T10:12:42.470Z,81.85
2019-03-08T10:13:42.446Z,83.64
2019-03-08T10:14:42.439Z,83.54
2019-03-08T10:15:42.449Z,83.44
2019-03-08T10:16:42.471Z,84.06
2019-03-08T10:17:42.405Z,84.16
2019-03-08T10:18:42.393Z,84.57
2019-03-08T10:19:42.381Z,85.09
2019-03-08T10:20:42.371Z,84.99
2019-03-08T10:21:42.402Z,85.39
2019-03-08T10:22:42.357Z,85.60
2019-03-08T10:23:42.337Z,84.99
2019-03-08T10:24:42.326Z,83.54
2019-03-08T10:25:42.315Z,83.23
2019-03-08T10:26:42.306Z,83.85
2019-03-08T10:27:42.338Z,83.64
2019-03-08T10:28:42.285Z,84.67
2019-03-08T10:29:42.275Z,85.81
2019-03-08T10:30:42.260Z,85.50
2019-03-08T10:31:42.248Z,85.71
2019-03-08T10:32:42.254Z,86.32
2019-03-08T10:33:46.586Z,86.29
2019-03-08T10:34:42.215Z,86.90
2019-03-08T10:35:42.204Z,85.77
2019-03-08T10:36:42.192Z,85.57
2019-03-08T10:37:42.184Z,85.81
2019-03-08T10:38:42.188Z,85.36
2019-03-08T10:39:42.199Z,84.74
2019-03-08T10:40:42.153Z,84.80
2019-03-08T10:41:42.138Z,84.94
2019-03-08T10:42:42.126Z,85.25
2019-03-08T10:43:42.129Z,84.74
2019-03-08T10:44:42.106Z,85.57
2019-03-08T10:45:42.129Z,86.70
2019-03-08T10:46:42.083Z,87.38
2019-03-08T10:47:42.070Z,86.04
2019-03-08T10:48:42.079Z,85.42
2019-03-08T10:49:42.051Z,84.70
2019-03-08T10:50:42.035Z,85.11
2019-03-08T10:51:42.056Z,84.14
2019-03-08T10:52:42.015Z,84.62
2019-03-08T10:53:42.005Z,85.30
2019-03-08T10:54:42.009Z,84.48
2019-03-08T10:55:41.993Z,84.54
2019-03-08T10:56:41.976Z,84.64
2019-03-08T10:57:41.965Z,84.54
2019-03-08T10:58:41.983Z,82.79
2019-03-08T10:59:41.939Z,82.07
2019-03-08T11:00:41.941Z,82.79
2019-03-08T11:01:41.918Z,83.72
2019-03-08T11:02:41.910Z,84.85
2019-03-08T11:03:41.895Z,84.95
2019-03-08T11:04:41.933Z,83.76
2019-03-08T11:05:41.889Z,82.63
2019-03-08T11:06:41.878Z,82.97
2019-03-08T11:07:41.852Z,83.01
2019-03-08T11:08:41.842Z,83.26
2019-03-08T11:09:41.830Z,83.05
2019-03-08T11:10:41.860Z,83.61
2019-03-08T11:11:41.823Z,83.81
2019-03-08T11:12:41.796Z,84.43
2019-03-08T11:13:43.559Z,84.99
2019-03-08T11:14:41.778Z,84.94
2019-03-08T11:15:41.764Z,85.60
2019-03-08T11:16:43.372Z,85.81
2019-03-08T11:17:50.299Z,84.67
2019-03-08T11:18:42.728Z,85.50
2019-03-08T11:19:41.720Z,86.94
2019-03-08T11:20:41.707Z,86.32
2019-03-08T11:21:41.713Z,86.32
2019-03-08T11:22:41.735Z,85.50
2019-03-08T11:23:41.681Z,85.87
2019-03-08T11:24:41.663Z,85.60
2019-03-08T11:25:41.655Z,85.91
2019-03-08T11:26:41.643Z,85.50
2019-03-08T11:27:41.629Z,85.91
2019-03-08T11:28:41.686Z,86.02
2019-03-08T11:29:41.609Z,85.71
2019-03-08T11:30:41.593Z,86.22
2019-03-08T11:31:41.587Z,87.15
2019-03-08T11:32:41.573Z,86.84
2019-03-08T11:33:41.565Z,87.01
2019-03-08T11:34:41.600Z,86.02
2019-03-08T11:35:41.541Z,85.39
2019-03-08T11:36:41.530Z,83.85
2019-03-08T11:37:41.518Z,84.57
2019-03-08T11:38:41.519Z,85.50
2019-03-08T11:39:41.500Z,85.91
2019-03-08T11:40:41.543Z,85.19
2019-03-08T11:41:41.475Z,85.36
2019-03-08T11:42:41.464Z,86.32
2019-03-08T11:43:41.452Z,85.15
2019-03-08T11:44:41.440Z,84.94
2019-03-08T11:45:41.461Z,83.81
2019-03-08T11:46:41.526Z,83.61
2019-03-08T11:47:41.409Z,85.15
2019-03-08T11:48:41.396Z,85.15
2019-03-08T11:49:42.544Z,84.12
2019-03-08T11:50:41.388Z,84.64
2019-03-08T11:51:41.365Z,84.12
2019-03-08T11:52:41.401Z,84.01
2019-03-08T11:53:41.339Z,84.49
2019-03-08T11:54:41.340Z,84.56
2019-03-08T11:55:41.331Z,84.72
2019-03-08T11:56:41.328Z,83.14
2019-03-08T11:57:41.298Z,81.01
2019-03-08T11:58:41.308Z,82.86
2019-03-08T11:59:41.274Z,82.86
2019-03-08T12:00:41.265Z,80.22
2019-03-08T12:01:41.253Z,80.63
2019-03-08T12:02:41.278Z,79.81
2019-03-08T12:03:41.232Z,80.74
2019-03-08T12:04:41.262Z,81.67
2019-03-08T12:05:41.209Z,80.74
2019-03-08T12:06:41.200Z,80.43
2019-03-08T12:07:41.204Z,79.09
2019-03-08T12:08:41.178Z,79.40
2019-03-08T12:09:41.170Z,79.54
2019-03-08T12:10:41.169Z,79.85
2019-03-08T12:11:41.141Z,80.16
2019-03-08T12:12:41.132Z,78.61
2019-03-08T12:13:41.134Z,79.33
2019-03-08T12:14:41.132Z,80.26
2019-03-08T12:15:41.098Z,80.36
2019-03-08T12:16:41.114Z,79.95
2019-03-08T12:17:41.078Z,78.72
2019-03-08T12:18:41.067Z,80.12
2019-03-08T12:19:41.058Z,80.43
2019-03-08T12:20:41.055Z,80.39
2019-03-08T12:21:41.034Z,80.05
2019-03-08T12:22:41.063Z,79.66
2019-03-08T12:23:41.010Z,77.81
2019-03-08T12:24:41.013Z,76.14
2019-03-08T12:25:41.071Z,76.14
2019-03-08T12:26:40.977Z,74.40
2019-03-08T12:27:40.962Z,73.27
2019-03-08T12:28:40.991Z,74.05
2019-03-08T12:29:40.943Z,73.33
2019-03-08T12:30:40.945Z,75.82
2019-03-08T12:31:40.921Z,72.65
2019-03-08T12:32:40.925Z,73.36
2019-03-08T12:33:40.899Z,73.85
2019-03-08T12:34:40.909Z,72.11
2019-03-08T12:35:40.878Z,73.74
2019-03-08T12:36:40.871Z,71.69
2019-03-08T12:37:40.873Z,71.28
2019-03-08T12:38:40.843Z,72.03
2019-03-08T12:39:40.846Z,71.93
2019-03-08T12:40:40.877Z,73.30
2019-03-08T12:41:40.814Z,72.00
2019-03-08T12:42:40.807Z,72.51
2019-03-08T12:43:40.806Z,73.33
2019-03-08T12:44:40.780Z,73.74
2019-03-08T12:45:40.767Z,69.57
2019-03-08T12:46:40.786Z,69.26
2019-03-08T12:47:40.751Z,69.37
2019-03-08T12:48:40.741Z,69.91
2019-03-08T12:49:40.739Z,69.50
2019-03-08T12:50:40.713Z,68.57
2019-03-08T12:51:40.702Z,69.70
2019-03-08T12:52:40.710Z,69.81